.
WxDataArchive / Data Records for 2014-04-11
2014-04-10 April 2014 2014-04-12

Data Records for Friday, 11 April 2014

Time	Temp	Chill	HIndex	Humid	Dewpt	 Wind 	HiWind	WindDir	Rain 	Barom
-----	----	-----	------	-----	-----	------	------	-------	-----	-----
00:00	52.0	52.0	52.0	89	48.9	0	2	270	0.00	29.891 
00:05	51.9	51.9	51.9	89	48.8	0	3	270	0.00	29.891 
00:10	51.7	51.7	51.7	89	48.6	0	4	270	0.00	29.891 
00:15	51.6	51.6	51.6	90	48.8	0	4	270	0.00	29.885 
00:20	51.4	51.4	51.4	90	48.6	0	0	---	0.00	29.885 
00:25	51.1	51.1	51.1	89	48.0	0	0	---	0.00	29.885 
00:30	50.8	50.8	50.8	89	47.7	0	0	---	0.00	29.897 
00:35	50.7	50.7	50.7	89	47.6	0	0	---	0.00	29.897 
00:40	50.4	50.4	50.4	89	47.3	0	0	---	0.00	29.897 
00:45	49.9	49.9	49.9	89	46.8	0	0	---	0.00	29.907 
00:50	49.6	49.6	49.6	90	46.8	0	0	---	0.00	29.907 
00:55	49.5	49.5	49.5	90	46.7	0	1	270	0.00	29.907 
01:00	49.1	49.1	49.1	90	46.3	0	1	270	0.01	29.915 
01:05	49.1	49.1	49.1	91	46.6	0	1	270	0.00	29.915 
01:10	49.1	49.1	49.1	91	46.6	0	0	---	0.00	29.915 
01:15	49.1	49.1	49.1	91	46.6	0	0	---	0.00	29.923 
01:20	48.9	48.9	48.9	91	46.4	0	0	---	0.00	29.923 
01:25	48.8	48.8	48.8	91	46.3	0	0	---	0.00	29.923 
01:30	48.6	48.6	48.6	92	46.4	0	0	---	0.00	29.930 
01:35	48.6	48.6	48.6	92	46.4	0	0	---	0.00	29.930 
01:40	48.6	48.6	48.6	92	46.4	0	0	---	0.00	29.930 
01:45	48.5	48.5	48.5	92	46.3	0	0	---	0.00	29.938 
01:50	48.5	48.5	48.5	92	46.3	0	0	---	0.00	29.938 
01:55	48.3	48.3	48.3	92	46.1	0	0	---	0.00	29.938 
02:00	48.3	48.3	48.3	92	46.1	0	0	---	0.00	29.941 
02:05	48.3	48.3	48.3	92	46.1	0	0	---	0.00	29.941 
02:10	48.3	48.3	48.3	92	46.1	0	0	---	0.00	29.941 
02:15	48.5	48.5	48.5	92	46.3	0	0	---	0.00	29.934 
02:20	48.5	48.5	48.5	92	46.3	0	0	---	0.00	29.934 
02:25	48.5	48.5	48.5	92	46.3	0	0	---	0.00	29.934 
02:30	48.6	48.6	48.6	93	46.7	0	0	---	0.00	29.928 
02:35	48.6	48.6	48.6	93	46.7	0	0	---	0.00	29.928 
02:40	48.6	48.6	48.6	93	46.7	0	0	---	0.00	29.928 
02:45	48.6	48.6	48.6	93	46.7	0	0	---	0.00	29.928 
02:50	48.6	48.6	48.6	93	46.7	0	0	---	0.00	29.928 
02:55	48.6	48.6	48.6	93	46.7	0	0	---	0.00	29.928 
03:00	48.5	48.5	48.5	93	46.6	0	0	---	0.00	29.919 
03:05	48.5	48.5	48.5	93	46.6	0	0	---	0.00	29.919 
03:10	48.5	48.5	48.5	93	46.6	0	0	---	0.00	29.919 
03:15	48.5	48.5	48.5	93	46.6	0	0	---	0.00	29.914 
03:20	48.5	48.5	48.5	93	46.6	0	0	---	0.00	29.914 
03:25	48.5	48.5	48.5	93	46.6	0	0	---	0.00	29.914 
03:30	48.5	48.5	48.5	93	46.6	0	0	---	0.00	29.919 
03:35	48.5	48.5	48.5	94	46.9	0	0	---	0.00	29.919 
03:40	48.3	48.3	48.3	94	46.7	0	0	---	0.00	29.919 
03:45	48.3	48.3	48.3	94	46.7	0	0	---	0.00	29.914 
03:50	48.3	48.3	48.3	94	46.7	0	0	---	0.00	29.914 
03:55	48.3	48.3	48.3	94	46.7	0	0	---	0.00	29.914 
04:00	48.2	48.2	48.2	94	46.6	0	0	---	0.00	29.912 
04:05	48.2	48.2	48.2	94	46.6	0	0	---	0.00	29.912 
04:10	48.2	48.2	48.2	94	46.6	0	0	---	0.00	29.912 
04:15	48.3	48.3	48.3	94	46.7	0	0	---	0.00	29.918 
04:20	48.3	48.3	48.3	94	46.7	0	0	---	0.00	29.918 
04:25	48.5	48.5	48.5	94	46.9	0	0	---	0.00	29.918 
04:30	48.5	48.5	48.5	94	46.9	0	0	---	0.00	29.912 
04:35	48.5	48.5	48.5	94	46.9	0	0	---	0.00	29.912 
04:40	48.5	48.5	48.5	94	46.9	0	0	---	0.00	29.912 
04:45	48.6	48.6	48.6	94	47.0	0	0	---	0.00	29.913 
04:50	48.6	48.6	48.6	94	47.0	0	0	---	0.00	29.913 
04:55	48.6	48.6	48.6	94	47.0	0	0	---	0.00	29.913 
05:00	48.6	48.6	48.6	94	47.0	0	0	---	0.00	29.924 
05:05	48.5	48.5	48.5	94	46.9	0	0	---	0.00	29.924 
05:10	48.5	48.5	48.5	94	46.9	0	0	---	0.00	29.924 
05:15	48.6	48.6	48.6	94	47.0	0	0	---	0.00	29.932 
05:20	48.6	48.6	48.6	94	47.0	0	0	---	0.00	29.932 
05:25	48.5	48.5	48.5	94	46.9	0	0	---	0.00	29.932 
05:30	48.5	48.5	48.5	95	47.1	0	0	---	0.00	29.943 
05:35	48.5	48.5	48.5	95	47.1	0	0	---	0.00	29.943 
05:40	48.5	48.5	48.5	95	47.1	0	0	---	0.00	29.943 
05:45	48.5	48.5	48.5	95	47.1	0	0	---	0.00	29.945 
05:50	48.3	48.3	48.3	95	46.9	0	0	---	0.00	29.945 
05:55	48.5	48.5	48.5	95	47.1	0	0	---	0.00	29.945 
06:00	48.5	48.5	48.5	95	47.1	0	0	---	0.00	29.942 
06:05	48.5	48.5	48.5	95	47.1	0	0	---	0.00	29.942 
06:10	48.5	48.5	48.5	95	47.1	0	0	---	0.00	29.942 
06:15	48.6	48.6	48.6	95	47.2	0	0	---	0.00	29.930 
06:20	48.5	48.5	48.5	95	47.1	0	0	---	0.00	29.930 
06:25	48.3	48.3	48.3	95	46.9	0	0	---	0.00	29.930 
06:30	48.3	48.3	48.3	95	46.9	0	0	---	0.00	29.935 
06:35	48.2	48.2	48.2	95	46.8	0	0	---	0.00	29.935 
06:40	48.0	48.0	48.0	95	46.6	0	0	---	0.00	29.935 
06:45	48.0	48.0	48.0	95	46.6	0	0	---	0.00	29.932 
06:50	48.0	48.0	48.0	95	46.6	0	0	---	0.00	29.932 
06:55	47.9	47.9	47.9	95	46.5	0	1	270	0.00	29.932 
07:00	47.6	47.6	47.6	95	46.2	0	1	270	0.00	29.933 
07:05	47.4	47.4	47.4	95	46.0	0	0	---	0.00	29.933 
07:10	47.3	47.3	47.3	95	45.9	0	0	---	0.00	29.933 
07:15	47.1	47.1	47.1	95	45.7	0	0	---	0.00	29.934 
07:20	46.7	46.7	46.7	95	45.3	0	0	---	0.00	29.934 
07:25	46.5	46.5	46.5	95	45.1	0	0	---	0.00	29.934 
07:30	46.4	46.4	46.4	95	45.0	0	0	---	0.00	29.949 
07:35	46.2	46.2	46.2	95	44.8	0	0	---	0.00	29.949 
07:40	46.2	46.2	46.2	95	44.8	0	0	---	0.00	29.949 
07:45	46.1	46.1	46.1	95	44.7	0	0	---	0.00	29.953 
07:50	46.1	46.1	46.1	95	44.7	0	0	---	0.00	29.953 
07:55	46.1	46.1	46.1	95	44.7	0	1	270	0.00	29.953 
08:00	46.1	46.1	46.1	95	44.7	0	0	---	0.00	29.967 
08:05	46.4	46.4	46.4	95	45.0	0	0	---	0.00	29.967 
08:10	46.4	46.4	46.4	95	45.0	0	0	---	0.00	29.967 
08:15	46.5	46.5	46.5	95	45.1	0	0	---	0.00	29.974 
08:20	46.8	46.8	46.8	95	45.4	0	0	---	0.00	29.974 
08:25	47.0	47.0	47.0	95	45.6	0	1	270	0.00	29.974 
08:30	47.3	47.3	47.3	95	45.9	0	1	270	0.00	29.980 
08:35	47.4	47.4	47.4	95	46.0	0	0	---	0.00	29.980 
08:40	47.4	47.4	47.4	95	46.0	0	1	270	0.00	29.980 
08:45	47.6	47.6	47.6	95	46.2	0	0	---	0.00	29.984 
08:50	47.7	47.7	47.7	95	46.3	0	0	---	0.00	29.984 
08:55	48.0	48.0	48.0	95	46.6	0	1	270	0.00	29.984 
09:00	48.3	48.3	48.3	95	46.9	0	0	---	0.00	29.986 
09:05	48.5	48.5	48.5	95	47.1	0	1	270	0.00	29.986 
09:10	48.6	48.6	48.6	95	47.2	0	1	270	0.00	29.986 
09:15	48.6	48.6	48.6	95	47.2	0	1	270	0.00	29.987 
09:20	48.8	48.8	48.8	95	47.4	0	1	270	0.00	29.987 
09:25	49.2	49.2	49.2	95	47.8	0	1	270	0.00	29.987 
09:30	49.5	49.5	49.5	94	47.8	0	1	225	0.00	29.993 
09:35	49.9	49.9	49.9	94	48.2	0	1	225	0.00	29.993 
09:40	50.1	50.1	50.1	92	47.9	0	2	225	0.00	29.993 
09:45	50.5	50.5	50.5	91	48.0	0	2	225	0.00	29.989 
09:50	50.8	50.8	50.8	87	47.1	0	2	225	0.00	29.989 
09:55	51.1	51.1	51.1	86	47.1	0	1	225	0.00	29.989 
10:00	51.6	51.6	51.6	84	46.9	0	1	225	0.00	29.993 
10:05	52.0	52.0	52.0	82	46.7	0	1	225	0.00	29.993 
10:10	52.5	52.5	52.5	80	46.5	0	1	225	0.00	29.993 
10:15	52.9	52.9	52.9	77	45.9	0	1	225	0.00	29.999 
10:20	53.5	53.5	53.5	72	44.7	1	3	180	0.00	29.999 
10:25	54.1	54.1	54.1	72	45.3	1	3	158	0.00	29.999 
10:30	54.7	54.7	54.7	70	45.1	1	3	135	0.00	29.998 
10:35	55.3	55.3	55.3	69	45.3	1	3	135	0.00	29.998 
10:40	56.0	56.0	56.0	69	46.0	0	3	135	0.00	29.998 
10:45	56.0	56.0	56.0	67	45.2	2	3	135	0.00	30.000 
10:50	56.0	56.0	56.0	70	46.4	1	4	135	0.00	30.000 
10:55	56.5	56.5	56.5	70	46.8	1	3	112	0.00	30.000 
11:00	56.9	56.9	56.9	70	47.2	1	4	112	0.00	30.003 
11:05	57.5	57.5	57.5	69	47.4	1	4	112	0.00	30.003 
11:10	58.0	58.0	58.0	70	48.3	0	1	112	0.00	30.003 
11:15	58.6	58.6	58.6	68	48.1	0	2	112	0.00	30.009 
11:20	58.9	58.9	58.9	65	47.2	1	2	112	0.00	30.009 
11:25	58.9	58.9	58.9	63	46.3	0	2	112	0.00	30.009 
11:30	59.2	59.2	59.2	64	47.0	0	1	112	0.00	30.013 
11:35	59.5	59.5	59.5	60	45.6	0	3	112	0.00	30.013 
11:40	59.5	59.5	59.5	59	45.2	0	2	112	0.00	30.013 
11:45	59.0	59.0	59.0	59	44.7	1	4	112	0.00	30.013 
11:50	59.0	59.0	59.0	62	46.0	0	2	338	0.00	30.013 
11:55	59.5	59.5	59.5	59	45.2	0	2	338	0.00	30.013 
12:00	60.1	60.1	60.1	57	44.8	0	1	338	0.00	30.012 
12:05	60.7	60.7	60.7	53	43.5	1	3	338	0.00	30.012 
12:10	60.5	60.5	60.5	55	44.2	0	3	68	0.00	30.012 
12:15	60.4	60.4	60.4	54	43.7	0	1	68	0.00	30.012 
12:20	59.8	59.8	59.8	51	41.6	0	2	68	0.00	30.012 
12:25	60.1	60.1	60.1	52	42.4	0	3	68	0.00	30.012 
12:30	60.7	60.7	60.7	48	40.9	0	2	68	0.00	30.008 
12:35	61.2	61.2	61.2	47	40.8	0	2	68	0.00	30.008 
12:40	61.6	61.6	61.6	48	41.7	0	2	68	0.00	30.008 
12:45	62.1	62.1	62.1	44	39.9	0	2	68	0.00	30.003 
12:50	61.6	61.6	61.6	44	39.5	1	4	0	0.00	30.003 
12:55	61.3	61.3	61.3	43	38.6	1	3	0	0.00	30.003 
13:00	61.0	61.0	61.0	46	40.1	2	4	315	0.00	30.002 
13:05	61.3	61.3	61.3	45	39.8	1	3	315	0.00	30.002 
13:10	62.0	62.0	62.0	46	41.0	1	3	292	0.00	30.002 
13:15	61.6	61.6	61.6	44	39.5	1	3	292	0.00	30.006 
13:20	61.2	61.2	61.2	44	39.1	1	4	315	0.00	30.006 
13:25	61.0	61.0	61.0	40	36.5	0	3	315	0.00	30.006 
13:30	61.8	61.8	61.8	37	35.3	1	3	315	0.00	30.002 
13:35	61.8	61.8	61.8	34	33.1	1	3	315	0.00	30.002 
13:40	62.6	62.6	62.6	35	34.6	2	4	248	0.00	30.002 
13:45	62.7	62.7	62.7	35	34.7	1	4	248	0.00	29.998 
13:50	62.9	62.9	62.9	37	36.2	1	5	338	0.00	29.998 
13:55	63.4	63.4	63.4	38	37.3	1	5	315	0.00	29.998 
14:00	63.9	63.9	63.9	37	37.1	0	2	270	0.00	29.996 
14:05	64.2	64.2	64.2	38	38.1	1	2	270	0.00	29.996 
14:10	64.7	64.7	64.7	38	38.5	0	2	270	0.00	29.996 
14:15	65.2	65.2	65.2	35	36.9	1	3	270	0.00	29.987 
14:20	65.5	65.5	65.5	33	35.6	1	3	270	0.00	29.987 
14:25	65.5	65.5	65.5	35	37.1	1	4	270	0.00	29.987 
14:30	65.3	65.3	65.3	33	35.5	1	4	270	0.00	29.990 
14:35	64.3	64.3	64.3	32	33.8	2	3	270	0.00	29.990 
14:40	64.3	64.3	64.3	33	34.6	1	4	292	0.00	29.990 
14:45	65.0	65.0	65.0	34	35.9	1	3	270	0.00	29.987 
14:50	64.7	64.7	64.7	30	32.5	1	6	338	0.00	29.987 
14:55	64.3	64.3	64.3	33	34.6	1	3	248	0.00	29.987 
15:00	64.7	64.7	64.7	29	31.7	2	4	315	0.00	29.984 
15:05	65.2	65.2	65.2	32	34.6	1	3	315	0.00	29.984 
15:10	65.6	65.6	65.6	33	35.7	1	4	248	0.00	29.984 
15:15	65.6	65.6	65.6	32	34.9	1	3	22	0.00	29.986 
15:20	66.3	66.3	66.3	35	37.8	0	2	270	0.00	29.986 
15:25	66.6	66.6	66.6	28	32.5	2	6	270	0.00	29.986 
15:30	66.1	66.1	66.1	32	35.4	3	6	248	0.00	29.983 
15:35	65.5	65.5	65.5	32	34.9	2	4	270	0.00	29.983 
15:40	65.2	65.2	65.2	30	33.0	1	2	270	0.00	29.983 
15:45	65.3	65.3	65.3	32	34.7	1	2	270	0.00	29.973 
15:50	66.1	66.1	66.1	31	34.6	1	4	270	0.00	29.973 
15:55	66.4	66.4	66.4	29	33.2	1	3	248	0.00	29.973 
16:00	66.8	66.8	66.8	32	36.0	1	3	248	0.00	29.974 
16:05	66.6	66.6	66.6	29	33.3	1	3	248	0.00	29.974 
16:10	66.9	66.9	66.9	31	35.3	0	2	248	0.00	29.974 
16:15	67.1	67.1	67.1	29	33.8	0	1	248	0.00	29.967 
16:20	66.8	66.8	66.8	28	32.6	1	2	248	0.00	29.967 
16:25	66.4	66.4	66.4	28	32.3	1	4	248	0.00	29.967 
16:30	66.4	66.4	66.4	31	34.8	0	2	248	0.00	29.965 
16:35	66.6	66.6	66.6	28	32.5	2	5	248	0.00	29.965 
16:40	66.6	66.6	66.6	28	32.5	1	3	248	0.00	29.965 
16:45	66.8	66.8	66.8	28	32.6	1	3	248	0.00	29.965 
16:50	66.8	66.8	66.8	28	32.6	2	4	248	0.00	29.965 
16:55	66.8	66.8	66.8	27	31.7	1	3	248	0.00	29.965 
17:00	66.8	66.8	66.8	27	31.7	1	5	248	0.00	29.964 
17:05	66.6	66.6	66.6	27	31.6	2	5	248	0.00	29.964 
17:10	66.6	66.6	66.6	26	30.6	1	5	270	0.00	29.964 
17:15	66.9	66.9	66.9	28	32.7	1	2	338	0.00	29.962 
17:20	67.1	67.1	67.1	28	32.9	1	4	270	0.00	29.962 
17:25	67.4	67.4	67.4	28	33.2	0	2	270	0.00	29.962 
17:30	67.8	67.8	67.8	27	32.6	1	4	270	0.00	29.963 
17:35	67.6	67.6	67.6	25	30.5	1	3	270	0.00	29.963 
17:40	67.8	67.8	67.8	26	31.7	0	1	270	0.00	29.963 
17:45	68.1	68.1	68.1	27	32.9	0	1	270	0.00	29.963 
17:50	68.3	68.3	68.3	23	29.1	1	4	270	0.00	29.963 
17:55	67.9	67.9	67.9	22	27.7	1	3	270	0.00	29.963 
18:00	67.8	67.8	67.8	21	26.4	1	3	270	0.00	29.972 
18:05	67.6	67.6	67.6	22	27.4	1	3	270	0.00	29.972 
18:10	67.4	67.4	67.4	22	27.2	2	4	270	0.00	29.972 
18:15	66.9	66.9	66.9	22	26.8	2	4	248	0.00	29.977 
18:20	66.4	66.4	66.4	21	25.3	2	5	315	0.00	29.977 
18:25	66.3	66.3	66.3	22	26.3	2	4	315	0.00	29.977 
18:30	66.3	66.3	66.3	22	26.3	1	3	315	0.00	29.974 
18:35	66.4	66.4	66.4	23	27.5	1	5	315	0.00	29.974 
18:40	66.4	66.4	66.4	23	27.5	1	4	248	0.00	29.974 
18:45	66.4	66.4	66.4	22	26.4	1	3	248	0.00	29.978 
18:50	66.3	66.3	66.3	23	27.4	1	3	248	0.00	29.978 
18:55	66.0	66.0	66.0	22	26.1	1	3	248	0.00	29.978 
19:00	65.8	65.8	65.8	23	27.0	1	2	248	0.00	29.980 
19:05	65.6	65.6	65.6	23	26.8	1	2	248	0.00	29.980 
19:10	65.5	65.5	65.5	23	26.7	1	3	248	0.00	29.980 
19:15	65.2	65.2	65.2	24	27.5	1	3	248	0.00	29.977 
19:20	65.0	65.0	65.0	24	27.3	1	3	248	0.00	29.977 
19:25	64.8	64.8	64.8	26	29.1	1	3	248	0.00	29.977 
19:30	64.5	64.5	64.5	26	28.9	0	1	248	0.00	29.982 
19:35	64.3	64.3	64.3	25	27.7	0	2	248	0.00	29.982 
19:40	64.3	64.3	64.3	25	27.7	0	2	248	0.00	29.982 
19:45	64.2	64.2	64.2	26	28.6	0	2	248	0.00	29.984 
19:50	63.9	63.9	63.9	27	29.3	0	3	248	0.00	29.984 
19:55	63.5	63.5	63.5	27	28.9	0	1	248	0.00	29.984 
20:00	63.4	63.4	63.4	27	28.8	0	1	248	0.00	29.990 
20:05	62.9	62.9	62.9	27	28.4	0	0	---	0.00	29.990 
20:10	62.6	62.6	62.6	28	29.0	0	0	---	0.00	29.990 
20:15	62.3	62.3	62.3	28	28.8	0	1	248	0.00	29.999 
20:20	61.8	61.8	61.8	28	28.4	0	0	---	0.00	29.999 
20:25	61.3	61.3	61.3	28	27.9	0	0	---	0.00	29.999 
20:30	60.7	60.7	60.7	29	28.3	0	0	---	0.00	30.003 
20:35	60.1	60.1	60.1	31	29.4	0	0	---	0.00	30.003 
20:40	59.3	59.3	59.3	32	29.4	0	0	---	0.00	30.003 
20:45	58.7	58.7	58.7	35	31.1	0	0	---	0.00	30.004 
20:50	58.0	58.0	58.0	35	30.5	0	0	---	0.00	30.004 
20:55	57.2	57.2	57.2	35	29.8	0	0	---	0.00	30.004 
21:00	56.7	56.7	56.7	37	30.7	0	0	---	0.00	30.013 
21:05	56.2	56.2	56.2	38	30.9	0	0	---	0.00	30.013 
21:10	55.7	55.7	55.7	39	31.1	0	0	---	0.00	30.013 
21:15	55.1	55.1	55.1	40	31.2	0	0	---	0.00	30.017 
21:20	54.7	54.7	54.7	40	30.9	0	0	---	0.00	30.017 
21:25	54.2	54.2	54.2	42	31.6	0	0	---	0.00	30.017 
21:30	53.8	53.8	53.8	43	31.8	0	0	---	0.00	30.021 
21:35	53.3	53.3	53.3	44	31.9	0	0	---	0.00	30.021 
21:40	52.9	52.9	52.9	44	31.6	0	0	---	0.00	30.021 
21:45	52.5	52.5	52.5	46	32.3	0	0	---	0.00	30.031 
21:50	52.2	52.2	52.2	47	32.6	0	0	---	0.00	30.031 
21:55	51.7	51.7	51.7	49	33.2	0	0	---	0.00	30.031 
22:00	51.6	51.6	51.6	50	33.6	0	0	---	0.00	30.031 
22:05	51.4	51.4	51.4	50	33.4	0	0	---	0.00	30.031 
22:10	51.1	51.1	51.1	51	33.6	0	0	---	0.00	30.031 
22:15	51.1	51.1	51.1	52	34.1	0	1	248	0.00	30.027 
22:20	51.0	51.0	51.0	53	34.5	0	1	248	0.00	30.027 
22:25	51.0	51.0	51.0	53	34.5	0	0	---	0.00	30.027 
22:30	50.7	50.7	50.7	53	34.2	0	0	---	0.00	30.030 
22:35	50.5	50.5	50.5	53	34.0	0	0	---	0.00	30.030 
22:40	50.2	50.2	50.2	53	33.7	0	0	---	0.00	30.030 
22:45	50.1	50.1	50.1	52	33.2	0	0	---	0.00	30.034 
22:50	50.1	50.1	50.1	52	33.2	0	0	---	0.00	30.034 
22:55	49.9	49.9	49.9	52	33.0	0	0	---	0.00	30.034 
23:00	49.9	49.9	49.9	52	33.0	0	0	---	0.00	30.034 
23:05	49.9	49.9	49.9	52	33.0	0	0	---	0.00	30.034 
23:10	49.8	49.8	49.8	52	32.9	0	0	---	0.00	30.034 
23:15	49.6	49.6	49.6	52	32.7	0	0	---	0.00	30.031 
23:20	49.4	49.4	49.4	54	33.5	0	0	---	0.00	30.031 
23:25	49.1	49.1	49.1	54	33.2	0	0	---	0.00	30.031 
23:30	48.9	48.9	48.9	54	33.0	0	0	---	0.00	30.031 
23:35	48.8	48.8	48.8	55	33.4	0	0	---	0.00	30.031 
23:40	48.6	48.6	48.6	55	33.2	0	0	---	0.00	30.031 
23:45	48.6	48.6	48.6	56	33.6	0	0	---	0.00	30.029 
23:50	48.8	48.8	48.8	56	33.8	0	1	248	0.00	30.029 
23:55	48.9	48.9	48.9	56	33.9	0	0	---	0.00	30.029 

CoCoRaHS
IN-AL-39
A2 Web Hosting
Creative Commons License
GoDaddy
search engine by freefind advanced

loaded 2018-11-19 10:16:50 • last modified 2010-11-18 10:43:29
Privacy PolicyDisclaimer
• wx.awcolley.com is powered by PmWiki v.2002016 •
• all content (unless otherwise noted) © 2018 A W Colley